Time;durP1;ratioP1;P1;durP2;ratioP2;P2;SDS_P1;SDS_P2;PMS_P1;PMS_P2;Temp;Humidity;BMP_temperature;BMP_pressure;BME280_temperature;BME280_humidity;BME280_pressure;Samples;Min_cycle;Max_cycle;Signal;HPM_P1;HPM_P2
2023/09/11 00:02:17;;;;;;;88.53;82.23;;;;;;;16.57;100.00;101640.97;4968310;28;20843;-42
2023/09/11 00:04:45;;;;;;;100.57;92.97;;;;;;;16.52;100.00;101638.88;4973854;28;20811;-45
2023/09/11 00:07:13;;;;;;;93.80;87.60;;;;;;;16.49;100.00;101633.06;4969945;28;21072;-41
2023/09/11 00:09:41;;;;;;;99.33;91.93;;;;;;;16.44;100.00;101631.03;4975271;28;20471;-43
2023/09/11 00:12:08;;;;;;;90.80;83.87;;;;;;;16.40;100.00;101632.50;4968134;28;20434;-43
2023/09/11 00:14:37;;;;;;;91.50;84.90;;;;;;;16.38;100.00;101626.50;4975421;28;20442;-43
2023/09/11 00:17:05;;;;;;;90.10;83.50;;;;;;;16.34;100.00;101622.59;4970661;28;20807;-44
2023/09/11 00:19:33;;;;;;;92.50;85.90;;;;;;;16.32;100.00;101621.16;4972304;28;20490;-41
2023/09/11 00:22:00;;;;;;;99.50;91.90;;;;;;;16.28;100.00;101618.06;4967622;28;20431;-42
2023/09/11 00:24:28;;;;;;;97.07;89.43;;;;;;;16.28;100.00;101611.84;4975616;28;20438;-48
2023/09/11 00:26:56;;;;;;;95.10;87.80;;;;;;;16.25;100.00;101604.19;4973731;28;20886;-41
2023/09/11 00:29:24;;;;;;;106.93;98.17;;;;;;;16.28;100.00;101601.06;4974970;28;21068;-42
2023/09/11 00:31:53;;;;;;;117.77;107.80;;;;;;;16.33;100.00;101583.25;4975260;28;20794;-42
2023/09/11 00:34:20;;;;;;;125.03;114.63;;;;;;;16.38;100.00;101586.13;4975575;28;20444;-46
2023/09/11 00:36:48;;;;;;;125.50;116.00;;;;;;;16.34;100.00;101581.38;4975132;28;20497;-42
2023/09/11 00:39:16;;;;;;;120.30;110.87;;;;;;;16.42;100.00;101578.47;4974622;28;20997;-45
2023/09/11 00:41:43;;;;;;;142.27;130.17;;;;;;;16.47;100.00;101576.78;4975457;28;20434;-42
2023/09/11 00:44:11;;;;;;;129.80;119.00;;;;;;;16.51;100.00;101580.69;4975374;28;20434;-46
2023/09/11 00:46:40;;;;;;;124.40;114.60;;;;;;;16.54;100.00;101582.16;4965684;28;20987;-41
2023/09/11 00:49:10;;;;;;;135.03;123.77;;;;;;;16.54;100.00;101582.16;4971555;28;20844;-41
2023/09/11 00:51:38;;;;;;;116.13;107.47;;;;;;;16.54;100.00;101582.16;4986412;28;20438;-41
2023/09/11 00:54:06;;;;;;;115.27;107.23;;;;;;;16.51;100.00;101586.06;4986436;28;20438;-44
2023/09/11 00:56:34;;;;;;;113.40;105.00;;;;;;;16.46;100.00;101582.34;4986012;28;20458;-42
2023/09/11 00:59:04;;;;;;;114.73;106.17;;;;;;;16.39;100.00;101579.72;4982386;28;20525;-42
2023/09/11 01:01:32;;;;;;;115.33;107.20;;;;;;;16.33;100.00;101575.19;4982835;28;20445;-42
2023/09/11 01:04:00;;;;;;;116.07;107.60;;;;;;;16.26;100.00;101576.25;4986640;28;21009;-42
2023/09/11 01:06:29;;;;;;;108.57;101.33;;;;;;;16.18;100.00;101569.25;4986161;28;20472;-41
2023/09/11 01:08:57;;;;;;;112.17;104.27;;;;;;;16.13;100.00;101579.00;4980091;28;20537;-41
2023/09/11 01:11:25;;;;;;;100.07;93.03;;;;;;;16.07;100.00;101575.28;4969340;28;20443;-41
2023/09/11 01:13:53;;;;;;;111.03;103.43;;;;;;;15.98;100.00;101569.31;4974589;28;20446;-41
2023/09/11 01:16:28;;;;;;;109.83;102.60;;;;;;;15.93;100.00;101562.91;4974570;28;20481;-45
2023/09/11 01:19:02;;;;;;;115.20;107.30;;;;;;;15.87;100.00;101574.50;4973921;28;21000;-43
2023/09/11 01:22:02;;;;;;;105.63;98.43;;;;;;;15.85;100.00;101576.59;4974746;28;20438;-41
2023/09/11 01:24:45;;;;;;;110.43;103.10;;;;;;;15.80;100.00;101553.00;4974573;28;20923;-42
2023/09/11 01:27:36;;;;;;;113.83;105.93;;;;;;;15.79;100.00;101555.91;4974022;28;20998;-46
2023/09/11 01:30:07;;;;;;;107.90;100.57;;;;;;;15.77;100.00;101555.31;4966877;28;20549;-43
2023/09/11 01:32:37;;;;;;;110.30;103.40;;;;;;;15.74;100.00;101561.13;4974343;28;20527;-47
2023/09/11 01:35:05;;;;;;;104.80;98.13;;;;;;;15.70;100.00;101557.19;4970103;28;20467;-42
2023/09/11 01:37:33;;;;;;;103.20;96.57;;;;;;;15.66;100.00;101554.09;4970856;28;20859;-42
2023/09/11 01:40:01;;;;;;;101.30;94.97;;;;;;;15.61;100.00;101545.84;4973550;28;20570;-47
2023/09/11 01:42:33;;;;;;;107.07;100.17;;;;;;;15.59;100.00;101550.56;4974206;28;20466;-42
2023/09/11 01:45:04;;;;;;;110.47;103.57;;;;;;;15.55;100.00;101543.97;4966399;28;20457;-42
2023/09/11 01:47:34;;;;;;;103.80;97.20;;;;;;;15.52;100.00;101552.47;4973632;28;20533;-45
2023/09/11 01:50:05;;;;;;;104.20;97.03;;;;;;;15.47;100.00;101547.69;4976873;28;20545;-41
2023/09/11 01:52:35;;;;;;;107.53;100.00;;;;;;;15.47;100.00;101546.91;4977495;28;20494;-41
2023/09/11 01:55:04;;;;;;;111.63;103.73;;;;;;;15.48;100.00;101543.16;4974342;28;20437;-43
2023/09/11 01:57:32;;;;;;;114.87;107.33;;;;;;;15.50;100.00;101552.66;4973601;28;20431;-46
2023/09/11 02:00:00;;;;;;;123.83;115.07;;;;;;;15.54;100.00;101553.06;4973189;28;21033;-44
2023/09/11 02:02:29;;;;;;;124.47;115.97;;;;;;;15.55;100.00;101545.84;4974086;28;20463;-41
2023/09/11 02:04:58;;;;;;;126.47;117.20;;;;;;;15.53;100.00;101545.22;4981611;28;20441;-45
2023/09/11 02:07:26;;;;;;;126.80;118.37;;;;;;;15.52;100.00;101543.56;4973427;28;20480;-41
2023/09/11 02:09:54;;;;;;;121.20;112.80;;;;;;;15.52;100.00;101548.94;4973281;28;20462;-43
2023/09/11 02:12:22;;;;;;;126.80;117.57;;;;;;;15.48;100.00;101543.97;4981720;28;20872;-45
2023/09/11 02:14:50;;;;;;;124.83;116.17;;;;;;;15.45;100.00;101543.53;4973167;28;20478;-42
2023/09/11 02:17:18;;;;;;;124.97;117.10;;;;;;;15.43;100.00;101540.25;4981389;28;20446;-42
2023/09/11 02:19:45;;;;;;;119.00;111.63;;;;;;;15.38;100.00;101540.84;4973128;28;20464;-42
2023/09/11 02:22:16;;;;;;;120.40;113.10;;;;;;;15.36;100.00;101542.94;4975095;28;20458;-40
2023/09/11 02:24:43;;;;;;;118.33;111.63;;;;;;;15.31;100.00;101545.44;4974504;28;20519;-41
2023/09/11 02:27:11;;;;;;;120.63;113.23;;;;;;;15.29;100.00;101535.94;4982042;28;20432;-48
2023/09/11 02:29:38;;;;;;;118.53;111.70;;;;;;;15.28;100.00;101531.56;4994045;28;20517;-44
2023/09/11 02:32:06;;;;;;;116.93;110.17;;;;;;;15.24;100.00;101531.16;4989084;28;20462;-41
2023/09/11 02:34:34;;;;;;;117.90;111.03;;;;;;;15.22;100.00;101533.25;4990401;28;20522;-43
2023/09/11 02:37:02;;;;;;;126.77;118.80;;;;;;;15.25;100.00;101530.13;4977082;28;20470;-42
2023/09/11 02:39:31;;;;;;;124.73;116.43;;;;;;;15.32;100.00;101530.13;4993105;28;20483;-42
2023/09/11 02:41:59;;;;;;;136.00;125.90;;;;;;;15.39;100.00;101533.63;4996547;28;20454;-42
2023/09/11 02:44:26;;;;;;;139.70;128.13;;;;;;;15.48;100.00;101535.91;4995541;28;20462;-44
2023/09/11 02:46:54;;;;;;;142.87;131.53;;;;;;;15.56;100.00;101531.38;4999986;28;20907;-41
2023/09/11 02:49:22;;;;;;;276.80;146.47;;;;;;;15.62;100.00;101527.84;5000601;28;20519;-41
2023/09/11 02:51:49;;;;;;;155.33;139.20;;;;;;;15.69;100.00;101529.47;4983940;28;20517;-43
2023/09/11 02:54:19;;;;;;;233.37;155.20;;;;;;;15.74;100.00;101531.53;4986453;28;20506;-43
2023/09/11 02:56:48;;;;;;;148.87;135.70;;;;;;;15.77;100.00;101534.59;4997454;28;20441;-43
2023/09/11 02:59:16;;;;;;;233.67;155.20;;;;;;;15.75;100.00;101530.47;4999816;28;20466;-44
2023/09/11 03:01:44;;;;;;;170.43;140.77;;;;;;;15.74;100.00;101529.66;4999853;28;20806;-43
2023/09/11 03:04:12;;;;;;;145.17;133.40;;;;;;;15.73;100.00;101537.94;4975371;28;20428;-41
2023/09/11 03:06:40;;;;;;;167.33;148.17;;;;;;;15.71;100.00;101532.75;4994121;28;20440;-41
2023/09/11 03:09:07;;;;;;;165.47;149.13;;;;;;;15.69;100.00;101534.00;5000257;28;20462;-40
2023/09/11 03:11:35;;;;;;;169.60;151.20;;;;;;;15.67;100.00;101534.22;4968825;28;20435;-42
2023/09/11 03:14:04;;;;;;;152.53;141.73;;;;;;;15.67;100.00;101530.72;4975584;28;20918;-42
2023/09/11 03:16:32;;;;;;;174.27;153.97;;;;;;;15.65;100.00;101528.22;4992972;28;20506;-40
2023/09/11 03:19:00;;;;;;;147.23;137.10;;;;;;;15.64;100.00;101531.97;4990995;28;20484;-43
2023/09/11 03:21:27;;;;;;;145.23;135.40;;;;;;;15.64;100.00;101523.91;4985742;28;20467;-40
2023/09/11 03:23:55;;;;;;;161.00;148.13;;;;;;;15.61;100.00;101521.63;4982271;28;20435;-41
2023/09/11 03:26:23;;;;;;;153.53;142.30;;;;;;;15.59;100.00;101520.19;5000093;28;20505;-40
2023/09/11 03:28:50;;;;;;;155.03;144.73;;;;;;;15.58;100.00;101522.06;4981571;28;20486;-43
2023/09/11 03:31:19;;;;;;;142.83;132.83;;;;;;;15.60;100.00;101513.75;4973139;28;20439;-42
2023/09/11 03:33:47;;;;;;;144.53;135.43;;;;;;;15.60;100.00;101514.59;4970630;28;20431;-41
2023/09/11 03:36:16;;;;;;;163.17;147.57;;;;;;;15.61;100.00;101520.81;4973348;28;20435;-41
2023/09/11 03:38:44;;;;;;;151.77;140.57;;;;;;;15.65;100.00;101512.09;4964201;28;20452;-42
2023/09/11 03:41:12;;;;;;;152.20;142.17;;;;;;;15.70;100.00;101511.47;4980550;28;20430;-43
2023/09/11 03:43:40;;;;;;;151.20;138.67;;;;;;;15.74;100.00;101510.81;4980885;28;20426;-42
2023/09/11 03:46:08;;;;;;;138.40;130.23;;;;;;;15.77;100.00;101499.66;4981003;28;20435;-46
2023/09/11 03:48:37;;;;;;;155.87;145.47;;;;;;;15.81;100.00;101500.06;4980351;28;20478;-44
2023/09/11 03:51:05;;;;;;;151.30;140.83;;;;;;;15.84;100.00;101499.63;4980019;28;20458;-43
2023/09/11 03:53:33;;;;;;;159.47;145.83;;;;;;;15.84;100.00;101497.75;4980015;28;20439;-41
2023/09/11 03:56:02;;;;;;;156.17;143.40;;;;;;;15.88;100.00;101496.31;4980037;28;20449;-41
2023/09/11 03:58:30;;;;;;;154.57;140.33;;;;;;;15.87;100.00;101504.56;4977818;28;20478;-46
2023/09/11 04:00:57;;;;;;;148.47;136.87;;;;;;;15.85;100.00;101490.53;4970152;28;20492;-41
2023/09/11 04:03:25;;;;;;;139.93;131.13;;;;;;;15.86;100.00;101492.19;4973864;28;20755;-44
2023/09/11 04:05:54;;;;;;;148.50;137.87;;;;;;;15.87;100.00;101483.06;4974091;28;20513;-41
2023/09/11 04:08:22;;;;;;;159.60;144.20;;;;;;;15.85;100.00;101479.78;4973521;28;20483;-41
2023/09/11 04:10:50;;;;;;;151.03;140.07;;;;;;;15.84;100.00;101478.09;4973522;28;20463;-43
2023/09/11 04:13:18;;;;;;;170.93;157.80;;;;;;;15.87;100.00;101473.13;4973363;28;20445;-42
2023/09/11 04:15:45;;;;;;;151.87;140.37;;;;;;;15.88;100.00;101477.50;4973267;28;20526;-40
2023/09/11 04:18:13;;;;;;;156.47;146.17;;;;;;;15.87;100.00;101472.31;4973319;28;20451;-42
2023/09/11 04:20:41;;;;;;;154.47;144.17;;;;;;;15.88;100.00;101482.03;4972896;28;20493;-42
2023/09/11 04:23:10;;;;;;;175.03;157.73;;;;;;;15.90;100.00;101477.25;4965325;28;20442;-42
2023/09/11 04:25:38;;;;;;;152.57;142.73;;;;;;;15.86;100.00;101493.00;4973247;28;20501;-42
2023/09/11 04:28:06;;;;;;;199.13;165.67;;;;;;;15.88;100.00;101487.41;4973113;28;20455;-42
2023/09/11 04:30:34;;;;;;;187.40;157.63;;;;;;;15.93;100.00;101495.66;4972944;28;20463;-41
2023/09/11 04:33:02;;;;;;;161.43;149.13;;;;;;;15.94;100.00;101495.47;4972997;28;20489;-41
2023/09/11 04:35:31;;;;;;;172.37;157.73;;;;;;;15.99;100.00;101489.44;4972829;28;20439;-42
2023/09/11 04:37:58;;;;;;;246.20;166.97;;;;;;;16.01;100.00;101490.84;4962759;28;20459;-41
2023/09/11 04:40:27;;;;;;;172.20;157.20;;;;;;;15.99;100.00;101487.56;4967189;28;20486;-41
2023/09/11 04:42:55;;;;;;;184.50;168.27;;;;;;;16.02;100.00;101491.69;4983156;28;20470;-42
2023/09/11 04:45:22;;;;;;;214.87;167.87;;;;;;;15.98;100.00;101493.97;4985096;28;20522;-44
2023/09/11 04:47:50;;;;;;;189.17;165.87;;;;;;;15.96;100.00;101490.69;4987435;28;20541;-42
2023/09/11 04:50:18;;;;;;;185.23;168.33;;;;;;;16.00;100.00;101491.91;4983977;28;20462;-41
2023/09/11 04:52:46;;;;;;;186.03;169.23;;;;;;;16.05;100.00;101497.47;4984909;28;20466;-41
2023/09/11 04:55:14;;;;;;;188.80;171.80;;;;;;;16.06;100.00;101498.31;4988153;28;20468;-41
2023/09/11 04:57:43;;;;;;;190.07;173.40;;;;;;;16.08;100.00;101488.13;4987252;28;20457;-44
2023/09/11 05:00:11;;;;;;;258.43;185.03;;;;;;;16.08;100.00;101490.84;4991608;28;20458;-41
2023/09/11 05:02:39;;;;;;;176.27;166.23;;;;;;;16.13;100.00;101493.69;4991542;28;20485;-41
2023/09/11 05:05:07;;;;;;;215.90;183.67;;;;;;;16.15;100.00;101485.44;4984483;28;21022;-41
2023/09/11 05:07:35;;;;;;;180.60;166.57;;;;;;;16.12;100.00;101488.53;4983588;28;20858;-41
2023/09/11 05:10:05;;;;;;;197.60;173.83;;;;;;;16.14;100.00;101494.53;4991694;28;21004;-41
2023/09/11 05:12:33;;;;;;;175.77;165.43;;;;;;;16.18;100.00;101495.75;4976136;28;20439;-44
2023/09/11 05:15:02;;;;;;;183.57;168.07;;;;;;;16.22;100.00;101502.38;4975652;28;20447;-42
2023/09/11 05:17:30;;;;;;;207.87;178.47;;;;;;;16.22;100.00;101492.41;4975849;28;20435;-46
2023/09/11 05:19:58;;;;;;;197.30;176.40;;;;;;;16.23;100.00;101498.63;4976648;28;20558;-42
2023/09/11 05:22:25;;;;;;;168.63;159.77;;;;;;;16.27;100.00;101489.09;4990081;28;20466;-43
2023/09/11 05:24:53;;;;;;;187.60;171.03;;;;;;;16.33;100.00;101497.13;4976488;28;20467;-43
2023/09/11 05:27:22;;;;;;;179.50;163.30;;;;;;;16.38;100.00;101491.09;4981397;28;20493;-45
2023/09/11 05:29:49;;;;;;;177.87;164.07;;;;;;;16.43;100.00;101489.38;4975464;28;20479;-44
2023/09/11 05:32:20;;;;;;;198.83;170.70;;;;;;;16.40;100.00;101483.59;4987435;28;20926;-42
2023/09/11 05:34:47;;;;;;;181.53;169.53;;;;;;;16.46;100.00;101482.75;4978690;28;20462;-45
2023/09/11 05:37:15;;;;;;;179.53;165.33;;;;;;;16.46;100.00;101482.75;4975909;28;20947;-41
2023/09/11 05:39:43;;;;;;;180.13;166.43;;;;;;;16.53;100.00;101483.53;4982402;28;20545;-43
2023/09/11 05:42:11;;;;;;;186.20;167.60;;;;;;;16.54;100.00;101479.84;4975435;28;20465;-42
2023/09/11 05:44:39;;;;;;;177.60;164.50;;;;;;;16.53;100.00;101472.75;4983848;28;20466;-43
2023/09/11 05:47:08;;;;;;;223.90;176.17;;;;;;;16.62;100.00;101476.03;4985483;28;20437;-42
2023/09/11 05:49:37;;;;;;;163.97;151.67;;;;;;;16.66;100.00;101467.31;4987625;28;20549;-46
2023/09/11 05:52:06;;;;;;;162.10;152.00;;;;;;;16.76;100.00;101470.34;4975265;28;20533;-42
2023/09/11 05:54:34;;;;;;;159.93;149.43;;;;;;;16.83;100.00;101481.91;4974696;28;20466;-41
2023/09/11 05:57:03;;;;;;;165.00;152.33;;;;;;;16.86;100.00;101472.53;4984200;28;20833;-43
2023/09/11 05:59:30;;;;;;;163.57;151.27;;;;;;;16.94;100.00;101481.16;4979716;28;21001;-43
2023/09/11 06:01:58;;;;;;;153.40;143.70;;;;;;;17.00;100.00;101479.47;4974206;28;21216;-41
2023/09/11 06:04:30;;;;;;;165.60;149.57;;;;;;;17.00;100.00;101474.06;4974516;28;20435;-44
2023/09/11 06:06:59;;;;;;;166.80;152.50;;;;;;;17.03;100.00;101469.06;4975488;28;20466;-41
2023/09/11 06:09:27;;;;;;;156.60;143.33;;;;;;;17.09;100.00;101473.56;4993064;28;20484;-41
2023/09/11 06:11:55;;;;;;;152.30;143.27;;;;;;;17.18;100.00;101476.81;4984597;28;20801;-41
2023/09/11 06:14:23;;;;;;;149.87;139.97;;;;;;;17.34;100.00;101483.50;4981793;28;20477;-44
2023/09/11 06:16:50;;;;;;;139.70;132.17;;;;;;;17.42;100.00;101481.34;4990116;28;20438;-45
2023/09/11 06:19:18;;;;;;;141.93;130.10;;;;;;;17.52;100.00;101483.53;4983975;28;20969;-44
2023/09/11 06:21:46;;;;;;;139.33;124.57;;;;;;;17.59;100.00;101478.91;4977697;28;20430;-45
2023/09/11 06:24:15;;;;;;;135.23;124.43;;;;;;;17.58;100.00;101471.88;4981123;28;20455;-43
2023/09/11 06:26:43;;;;;;;119.33;112.63;;;;;;;17.68;100.00;101466.78;4981512;28;21033;-41
2023/09/11 06:29:12;;;;;;;120.73;113.80;;;;;;;17.72;100.00;101467.97;4972997;28;20454;-41
2023/09/11 06:31:39;;;;;;;124.13;114.93;;;;;;;17.79;100.00;101460.63;4981364;28;20439;-43
2023/09/11 06:34:07;;;;;;;111.17;104.43;;;;;;;17.93;100.00;101453.16;4981521;28;20525;-43
2023/09/11 06:36:35;;;;;;;106.60;101.13;;;;;;;18.06;100.00;101461.09;4979538;28;20529;-41
2023/09/11 06:39:05;;;;;;;98.27;91.67;;;;;;;18.12;100.00;101462.88;4976070;28;20454;-41
2023/09/11 06:41:34;;;;;;;93.53;87.87;;;;;;;18.18;100.00;101462.81;4978568;28;20522;-42
2023/09/11 06:44:02;;;;;;;90.97;84.93;;;;;;;18.27;100.00;101460.59;4973318;28;20443;-43
2023/09/11 06:46:30;;;;;;;86.97;80.67;;;;;;;18.44;100.00;101463.47;4973344;28;20469;-41
2023/09/11 06:48:58;;;;;;;73.00;68.67;;;;;;;18.56;100.00;101459.78;4972588;28;20464;-41
2023/09/11 06:51:26;;;;;;;66.63;62.20;;;;;;;18.77;100.00;101456.53;4973285;28;20474;-43
2023/09/11 06:53:55;;;;;;;72.53;67.70;;;;;;;18.93;100.00;101446.06;4973408;28;20525;-41
2023/09/11 06:56:22;;;;;;;62.70;58.90;;;;;;;19.09;100.00;101442.66;4973839;28;20863;-42
2023/09/11 06:58:51;;;;;;;61.27;57.20;;;;;;;19.30;100.00;101436.66;4973061;28;20466;-43
2023/09/11 07:01:19;;;;;;;59.00;55.20;;;;;;;19.49;100.00;101442.78;4973857;28;20445;-45
2023/09/11 07:03:47;;;;;;;65.07;60.87;;;;;;;19.56;100.00;101435.34;4973072;28;20989;-41
2023/09/11 07:06:15;;;;;;;60.80;56.40;;;;;;;19.67;100.00;101439.91;4973285;28;20492;-41
2023/09/11 07:08:43;;;;;;;64.13;59.90;;;;;;;19.76;100.00;101427.66;4972807;28;20520;-42
2023/09/11 07:11:11;;;;;;;53.23;49.77;;;;;;;20.07;100.00;101423.66;4973436;28;20518;-43
2023/09/11 07:13:39;;;;;;;62.10;57.70;;;;;;;20.41;100.00;101419.94;4973772;28;20454;-43
2023/09/11 07:16:08;;;;;;;56.00;52.10;;;;;;;20.80;100.00;101418.97;4981930;28;20587;-41
2023/09/11 07:18:35;;;;;;;54.13;50.60;;;;;;;21.10;100.00;101412.38;4972837;28;20462;-43
2023/09/11 07:21:05;;;;;;;57.17;53.20;;;;;;;21.49;100.00;101395.00;4981196;28;20520;-41
2023/09/11 07:23:33;;;;;;;54.53;51.07;;;;;;;21.72;100.00;101399.34;4979176;28;20449;-41
2023/09/11 07:26:01;;;;;;;50.33;47.23;;;;;;;22.08;100.00;101397.84;4990114;28;20433;-43
2023/09/11 07:28:29;;;;;;;51.87;48.60;;;;;;;22.38;100.00;101390.81;4973448;28;20458;-44
2023/09/11 07:30:57;;;;;;;50.90;47.67;;;;;;;22.62;100.00;101391.28;4973178;28;20473;-44
2023/09/11 07:33:26;;;;;;;53.43;49.87;;;;;;;22.69;100.00;101382.94;4973865;28;20500;-42
2023/09/11 07:35:54;;;;;;;58.30;54.70;;;;;;;22.65;100.00;101384.53;4973873;28;20950;-43
2023/09/11 07:38:22;;;;;;;55.83;52.10;;;;;;;22.96;100.00;101389.09;4981047;28;20457;-43
2023/09/11 07:40:49;;;;;;;53.60;50.33;;;;;;;22.96;100.00;101383.66;4973871;28;20482;-42
2023/09/11 07:43:17;;;;;;;53.53;50.00;;;;;;;23.12;100.00;101379.94;4981783;28;20862;-41
2023/09/11 07:45:46;;;;;;;54.90;51.47;;;;;;;23.16;100.00;101378.31;4973707;28;20526;-44
2023/09/11 07:48:14;;;;;;;53.27;49.93;;;;;;;23.30;100.00;101370.47;4973187;28;20538;-42
2023/09/11 07:50:43;;;;;;;53.80;50.30;;;;;;;23.33;100.00;101361.78;4974193;28;20493;-45
2023/09/11 07:53:11;;;;;;;52.07;48.67;;;;;;;23.62;100.00;101357.59;4973354;28;20990;-43
2023/09/11 07:55:39;;;;;;;50.67;47.47;;;;;;;23.65;100.00;101354.34;4973439;28;20927;-42
2023/09/11 07:58:09;;;;;;;48.30;45.27;;;;;;;23.92;100.00;101360.38;4981131;28;20460;-44
2023/09/11 08:00:37;;;;;;;49.77;46.53;;;;;;;23.96;100.00;101355.19;4973193;28;20521;-47
2023/09/11 08:03:05;;;;;;;53.87;50.47;;;;;;;24.15;100.00;101357.19;4974066;28;20442;-45
2023/09/11 08:05:33;;;;;;;53.43;50.13;;;;;;;24.27;100.00;101356.09;4973951;28;20445;-44
2023/09/11 08:08:02;;;;;;;55.23;51.67;;;;;;;24.25;100.00;101350.09;4972309;28;20485;-41
2023/09/11 08:10:30;;;;;;;52.80;49.27;;;;;;;24.33;100.00;101361.25;4981220;28;20474;-47
2023/09/11 08:12:58;;;;;;;53.60;50.20;;;;;;;24.27;100.00;101346.00;4973599;28;20445;-44
2023/09/11 08:15:29;;;;;;;50.83;47.43;;;;;;;24.26;100.00;101348.97;4973586;28;20457;-43
2023/09/11 08:17:57;;;;;;;50.20;47.10;;;;;;;24.33;100.00;101346.81;4973692;28;20458;-42
2023/09/11 08:20:25;;;;;;;50.50;47.20;;;;;;;24.22;100.00;101335.09;4974023;28;20462;-43
2023/09/11 08:22:53;;;;;;;57.57;53.77;;;;;;;24.14;100.00;101330.19;4985546;28;20525;-43
2023/09/11 08:25:21;;;;;;;53.17;49.70;;;;;;;24.18;100.00;101334.84;4977611;28;20505;-41
2023/09/11 08:27:49;;;;;;;47.37;44.37;;;;;;;24.37;100.00;101334.28;4986358;28;20457;-42
2023/09/11 08:30:17;;;;;;;48.20;45.27;;;;;;;24.49;100.00;101329.38;4988628;28;20457;-44
2023/09/11 08:32:44;;;;;;;50.97;47.50;;;;;;;24.59;100.00;101330.16;4982616;28;20484;-42
2023/09/11 08:35:12;;;;;;;46.50;43.43;;;;;;;24.70;100.00;101330.97;4985434;28;20434;-41
2023/09/11 08:37:40;;;;;;;46.27;43.37;;;;;;;24.84;100.00;101331.22;4977502;28;20529;-45
2023/09/11 08:40:09;;;;;;;47.73;44.70;;;;;;;24.89;100.00;101326.56;4977275;28;20458;-43
2023/09/11 08:42:38;;;;;;;46.37;43.10;;;;;;;24.93;100.00;101332.28;4977778;28;20438;-43
2023/09/11 08:45:07;;;;;;;48.27;44.93;;;;;;;24.80;100.00;101328.19;4978706;28;20533;-47
2023/09/11 08:47:35;;;;;;;44.17;41.17;;;;;;;24.79;100.00;101321.09;4988701;28;20444;-45
2023/09/11 08:50:06;;;;;;;42.00;39.00;;;;;;;25.02;100.00;101319.72;4980499;28;20466;-42
2023/09/11 08:52:35;;;;;;;40.40;37.83;;;;;;;24.96;100.00;101312.63;4983185;28;20478;-42
2023/09/11 08:55:08;;;;;;;44.67;41.47;;;;;;;24.98;100.00;101304.97;4977368;28;20434;-42
2023/09/11 08:57:39;;;;;;;43.23;40.50;;;;;;;25.04;100.00;101299.25;4982714;28;20441;-45
2023/09/11 09:00:11;;;;;;;40.00;37.37;;;;;;;25.06;100.00;101307.94;4978378;28;20533;-43
2023/09/11 09:02:40;;;;;;;38.00;35.60;;;;;;;25.27;100.00;101309.50;4976958;28;20430;-42
2023/09/11 09:05:09;;;;;;;37.93;35.43;;;;;;;25.49;100.00;101308.31;4977811;28;20438;-43
2023/09/11 09:07:39;;;;;;;38.90;36.30;;;;;;;25.72;100.00;101310.38;4977007;28;20438;-42
2023/09/11 09:10:08;;;;;;;39.70;37.13;;;;;;;25.82;100.00;101307.56;4976831;28;20537;-42
2023/09/11 09:12:37;;;;;;;37.60;35.00;;;;;;;25.96;100.00;101303.09;4982039;28;20472;-43
2023/09/11 09:15:08;;;;;;;40.20;37.30;;;;;;;26.02;100.00;101299.22;4979737;28;20446;-42
2023/09/11 09:17:36;;;;;;;35.77;33.10;;;;;;;26.06;100.00;101308.47;4976022;28;20446;-43
2023/09/11 09:20:05;;;;;;;39.23;36.40;;;;;;;26.19;100.00;101304.31;4976101;28;20477;-43
2023/09/11 09:22:32;;;;;;;36.13;33.60;;;;;;;26.11;100.00;101293.94;4976390;28;20450;-42
2023/09/11 09:25:00;;;;;;;35.57;33.07;;;;;;;26.19;100.00;101294.19;4992446;28;20853;-42
2023/09/11 09:27:30;;;;;;;32.03;29.53;;;;;;;26.32;100.00;101287.22;4978042;28;20469;-43
2023/09/11 09:29:58;;;;;;;33.23;30.80;;;;;;;26.32;100.00;101279.84;4983874;28;20458;-41
2023/09/11 09:32:33;;;;;;;26.03;24.33;;;;;;;26.50;100.00;101264.63;4983350;28;20478;-42
2023/09/11 09:35:01;;;;;;;27.90;26.03;;;;;;;26.50;100.00;101272.81;4984016;28;20540;-44
2023/09/11 09:37:29;;;;;;;30.47;27.80;;;;;;;26.66;100.00;101260.63;4975879;28;20512;-48
2023/09/11 09:39:56;;;;;;;27.20;25.37;;;;;;;26.55;100.00;101250.09;4983842;28;20454;-41
2023/09/11 09:42:24;;;;;;;23.43;21.83;;;;;;;26.54;100.00;101267.59;4968330;28;20438;-42
2023/09/11 09:44:53;;;;;;;23.77;22.13;;;;;;;26.71;100.00;101260.56;4976253;28;20485;-44
2023/09/11 09:47:22;;;;;;;26.37;24.17;;;;;;;26.83;100.00;101251.97;4978863;28;20433;-42
2023/09/11 09:49:52;;;;;;;23.90;22.13;;;;;;;26.75;100.00;101249.84;4980604;28;20459;-42
2023/09/11 09:52:21;;;;;;;24.07;22.23;;;;;;;27.03;100.00;101253.66;4976109;28;20484;-43
2023/09/11 09:54:51;;;;;;;26.93;24.73;;;;;;;27.17;100.00;101249.06;4990740;28;20440;-41
2023/09/11 09:57:21;;;;;;;22.57;20.77;;;;;;;27.31;100.00;101241.75;4995135;28;20438;-42
2023/09/11 09:59:52;;;;;;;24.87;22.97;;;;;;;27.18;100.00;101231.53;4995160;28;20461;-41
2023/09/11 10:02:26;;;;;;;25.90;23.87;;;;;;;27.29;100.00;101238.50;4994912;28;20452;-42
2023/09/11 10:04:56;;;;;;;27.67;25.33;;;;;;;27.05;100.00;101240.47;4993128;28;20441;-42
2023/09/11 10:07:37;;;;;;;29.20;27.00;;;;;;;26.92;100.00;101248.28;4992921;28;20488;-43
2023/09/11 10:10:20;;;;;;;27.40;25.30;;;;;;;26.78;100.00;101239.13;4992908;28;20449;-41
2023/09/11 10:12:53;;;;;;;21.90;20.33;;;;;;;27.08;100.00;101239.88;4992677;28;20531;-41
2023/09/11 10:15:21;;;;;;;23.07;21.43;;;;;;;27.34;100.00;101232.94;4993016;28;20453;-45
2023/09/11 10:17:53;;;;;;;23.93;22.03;;;;;;;27.31;100.00;101230.78;4986087;28;20562;-43
2023/09/11 10:20:23;;;;;;;23.80;21.90;;;;;;;27.27;100.00;101236.03;4983922;28;20516;-42
2023/09/11 10:22:54;;;;;;;21.90;20.23;;;;;;;27.63;100.00;101241.03;4993047;28;21116;-44
2023/09/11 10:25:23;;;;;;;20.30;18.80;;;;;;;27.86;100.00;101229.97;4992863;28;20520;-46
2023/09/11 10:27:56;;;;;;;24.80;22.43;;;;;;;27.95;100.00;101228.16;4974978;28;20458;-42
2023/09/11 10:30:31;;;;;;;25.60;23.03;;;;;;;27.86;100.00;101221.72;4980859;28;21019;-43
2023/09/11 10:33:02;;;;;;;22.23;20.43;;;;;;;28.07;100.00;101218.66;4973350;28;20469;-43
2023/09/11 10:35:39;;;;;;;22.20;19.73;;;;;;;28.27;100.00;101212.78;4973278;28;20459;-42
2023/09/11 10:38:08;;;;;;;22.17;20.13;;;;;;;28.26;100.00;101209.25;4980197;28;20507;-43
2023/09/11 10:40:39;;;;;;;22.50;20.23;;;;;;;28.24;100.00;101206.00;4968852;28;20486;-42
2023/09/11 10:43:07;;;;;;;21.73;20.13;;;;;;;28.30;100.00;101198.47;4973025;28;20994;-44
2023/09/11 10:45:35;;;;;;;20.97;19.23;;;;;;;28.32;100.00;101202.53;4973044;28;20434;-43
2023/09/11 10:48:03;;;;;;;22.60;20.90;;;;;;;27.95;100.00;101200.75;4972706;28;20512;-44
2023/09/11 10:50:36;;;;;;;20.63;18.63;;;;;;;27.79;100.00;101201.28;4972614;28;20462;-45
2023/09/11 10:53:05;;;;;;;21.77;20.00;;;;;;;27.87;100.00;101187.72;4972548;28;21035;-41
2023/09/11 10:55:33;;;;;;;21.87;19.90;;;;;;;27.91;100.00;101183.25;4972864;28;20438;-43
2023/09/11 10:58:04;;;;;;;19.47;17.67;;;;;;;28.29;100.00;101181.19;4972812;28;20508;-42
2023/09/11 11:00:37;;;;;;;20.50;18.33;;;;;;;28.54;100.00;101177.97;4972541;28;20464;-43
2023/09/11 11:03:05;;;;;;;18.07;16.37;;;;;;;28.65;100.00;101175.03;4972617;28;20788;-42